Pagrindinis puslapis
METAR-TAF:

METAR-TAF

Oro uostai :

Varšuvos Šopeno oro uostas

Varšuva, Lenkija

platuma: 52-10N, ilguma: 020-58E, Aukštis: 106 m

Dabartinis oras

Ataskaita buvo paskelbta 33 minutes, ne 08:00 UTC
Vėjas 4 kt iš Vakarų
Temperatūra 2°C
Drėgmė 93%
Slėgis 1043 hPa
Matomumas 10 km arba daugiau
Su prošvaistėmis ne aukštis 2600 ft

METAR: EPWA 200800Z 26004KT 9999 BKN026 02/01 Q1043 NOSIG

Laikas: 09:33 (08:33 UTC)

Prognozė

Ataskaita buvo paskelbta 3 valandos ir 3 minutes, ne 05:30 UTC
Prognozė galioja nuo 20 metu 06 UTC su 21 metu 06 UTC
Vėjas 8 kt iš Vakarų
Matomumas 10 km arba daugiau
Su prošvaistėmis ne aukštis 2500 ft
Tikimybė 40% :
Laikinai
nuo 20 metu 18 UTC su 21 metu 06 UTC
Vėjas 16 kt iš Vakarų su gūsio iki 28 kt
Su prošvaistėmis ne aukštis 1200 ft

TAF: EPWA 200530Z 2006/2106 27008KT 9999 BKN025 PROB40 TEMPO 2018/2106 28016G28KT BKN012

Orai ataskaitas ir orų prognozės (METAR, TAF).

turimą stotys yra geltonos ir raudonos taškus žemėlapyje.

Perkelti pele per norėdami pamatyti stoties vardą.

Tada spustelėkite, norėdami matyti oro stebėjimo ir prognozės.

Norėdami pakeisti žemėlapį: spustelėkite ant žalios mygtukų su juodo kryžiaus žemyn,; žalią mygtuką su brūkšneliu, jei norite nutolinti; arba žalių rodyklių gretimoms žemėlapius.


METAR-TAF: